Time;durP1;ratioP1;P1;durP2;ratioP2;P2;SDS_P1;SDS_P2;PMS_P1;PMS_P2;Temp;Humidity;BMP_temperature;BMP_pressure;BME280_temperature;BME280_humidity;BME280_pressure;Samples;Min_cycle;Max_cycle;Signal;HPM_P1;HPM_P2
2023/11/18 00:01:08;;;;;;;6.23;3.87;;;7.70;86.50;;;;;;5059208;28;20230;-64
2023/11/18 00:03:35;;;;;;;5.83;4.30;;;7.70;86.80;;;;;;5062512;28;20284;-64
2023/11/18 00:06:03;;;;;;;5.47;3.87;;;7.70;86.70;;;;;;5064122;28;20669;-64
2023/11/18 00:08:31;;;;;;;4.63;3.60;;;7.70;86.60;;;;;;5066223;28;20252;-64
2023/11/18 00:10:57;;;;;;;7.90;3.40;;;7.70;86.70;;;;;;5062815;28;20207;-64
2023/11/18 00:13:26;;;;;;;5.73;3.63;;;7.70;86.90;;;;;;5060764;28;20516;-64
2023/11/18 00:15:53;;;;;;;5.60;3.90;;;7.70;87.10;;;;;;5064615;28;20225;-64
2023/11/18 00:18:20;;;;;;;5.03;3.60;;;7.70;87.30;;;;;;5062787;28;20224;-64
2023/11/18 00:20:47;;;;;;;10.23;4.33;;;7.70;87.40;;;;;;5066674;28;20500;-63
2023/11/18 00:23:14;;;;;;;4.53;3.57;;;7.60;87.30;;;;;;5059341;28;20670;-63
2023/11/18 00:25:41;;;;;;;5.80;3.63;;;7.60;87.30;;;;;;5061969;28;20197;-64
2023/11/18 00:28:08;;;;;;;5.37;3.17;;;7.60;87.40;;;;;;5063763;28;20492;-64
2023/11/18 00:30:35;;;;;;;6.13;3.40;;;7.50;87.40;;;;;;5064163;28;20277;-64
2023/11/18 00:33:02;;;;;;;5.63;3.87;;;7.50;87.40;;;;;;5048509;28;20612;-64
2023/11/18 00:35:31;;;;;;;5.20;3.33;;;7.50;87.40;;;;;;5048567;28;20206;-64
2023/11/18 00:37:58;;;;;;;6.20;4.00;;;7.50;87.50;;;;;;5063644;28;20198;-64
2023/11/18 00:40:29;;;;;;;5.00;3.43;;;7.50;87.70;;;;;;5051693;28;20206;-64
2023/11/18 00:42:57;;;;;;;5.13;3.40;;;7.50;88.00;;;;;;5059373;28;20217;-64
2023/11/18 00:45:24;;;;;;;7.00;4.00;;;7.40;88.10;;;;;;5048201;28;20687;-64
2023/11/18 00:47:51;;;;;;;4.70;3.30;;;7.40;88.00;;;;;;5060497;28;20194;-64
2023/11/18 00:50:18;;;;;;;4.27;3.47;;;7.40;88.00;;;;;;5065238;28;20237;-64
2023/11/18 00:52:49;;;;;;;3.60;2.90;;;7.40;88.30;;;;;;5066747;28;20198;-64
2023/11/18 00:55:20;;;;;;;6.33;3.40;;;7.40;88.40;;;;;;5063459;28;20542;-64
2023/11/18 00:57:47;;;;;;;6.73;3.47;;;7.40;88.40;;;;;;5052096;28;20702;-64
2023/11/18 01:00:26;;;;;;;5.83;3.17;;;7.30;88.30;;;;;;5057804;28;20194;-64
2023/11/18 01:02:54;;;;;;;4.20;2.93;;;7.30;88.10;;;;;;5057023;28;20193;-64
2023/11/18 01:05:21;;;;;;;4.57;3.03;;;7.30;88.00;;;;;;5066792;28;20238;-62
2023/11/18 01:07:49;;;;;;;8.67;2.87;;;7.30;88.00;;;;;;5063801;28;20224;-62
2023/11/18 01:10:19;;;;;;;5.80;2.80;;;7.30;87.90;;;;;;5053589;28;20696;-62
2023/11/18 01:12:46;;;;;;;4.90;2.50;;;7.30;87.80;;;;;;5066931;28;20206;-62
2023/11/18 01:15:14;;;;;;;4.27;2.60;;;7.30;87.50;;;;;;5051935;28;20662;-62
2023/11/18 01:17:41;;;;;;;3.63;2.90;;;7.30;87.40;;;;;;5053371;28;20501;-61
2023/11/18 01:20:13;;;;;;;3.57;2.70;;;7.30;87.30;;;;;;5063824;28;20635;-62
2023/11/18 01:22:41;;;;;;;2.10;1.90;;;7.30;87.40;;;;;;5060711;28;20201;-62
2023/11/18 01:25:09;;;;;;;2.70;2.17;;;7.30;87.30;;;;;;5041995;28;20219;-62
2023/11/18 01:27:36;;;;;;;3.13;2.60;;;7.30;87.20;;;;;;5062634;28;20202;-62
2023/11/18 01:30:04;;;;;;;3.00;2.50;;;7.30;87.10;;;;;;5048640;28;20250;-62
2023/11/18 01:32:31;;;;;;;3.53;2.10;;;7.30;86.70;;;;;;5063863;28;20203;-62
2023/11/18 01:34:58;;;;;;;4.80;2.93;;;7.30;86.60;;;;;;5067019;28;20215;-62
2023/11/18 01:37:25;;;;;;;2.87;2.20;;;7.20;86.40;;;;;;5059035;28;20257;-61
2023/11/18 01:39:52;;;;;;;5.57;2.33;;;7.20;86.20;;;;;;5063850;28;20635;-62
2023/11/18 01:42:19;;;;;;;2.40;2.20;;;7.20;86.10;;;;;;5055193;28;20195;-62
2023/11/18 01:44:48;;;;;;;2.30;2.10;;;7.20;85.90;;;;;;5064991;28;20203;-62
2023/11/18 01:47:16;;;;;;;3.47;2.00;;;7.20;85.90;;;;;;5066936;28;20255;-61
2023/11/18 01:49:44;;;;;;;3.60;2.70;;;7.20;85.80;;;;;;5064571;28;20585;-61
2023/11/18 01:52:11;;;;;;;5.10;2.27;;;7.20;85.70;;;;;;5057620;28;20206;-61
2023/11/18 01:54:40;;;;;;;5.23;2.17;;;7.20;85.70;;;;;;5067584;28;20283;-61
2023/11/18 01:57:09;;;;;;;2.87;2.20;;;7.20;85.70;;;;;;5068405;28;20194;-62
2023/11/18 01:59:40;;;;;;;3.70;2.70;;;7.10;85.70;;;;;;5056837;28;20260;-62
2023/11/18 02:02:07;;;;;;;2.50;2.00;;;7.10;85.60;;;;;;5051857;28;20213;-62
2023/11/18 02:04:34;;;;;;;3.43;2.30;;;7.10;85.40;;;;;;5044865;28;20235;-62
2023/11/18 02:07:04;;;;;;;2.43;2.20;;;7.00;85.40;;;;;;5056504;28;20203;-62
2023/11/18 02:09:31;;;;;;;3.93;2.67;;;7.00;85.50;;;;;;5066075;28;20204;-62
2023/11/18 02:12:17;;;;;;;3.17;2.20;;;7.00;85.60;;;;;;5055553;28;20581;-62
2023/11/18 02:14:45;;;;;;;2.77;2.30;;;7.00;85.40;;;;;;5069070;28;20539;-61
2023/11/18 02:17:15;;;;;;;3.07;2.13;;;7.00;85.60;;;;;;5051508;28;20205;-63
2023/11/18 02:19:43;;;;;;;3.10;1.97;;;7.00;85.90;;;;;;5066729;28;20205;-61
2023/11/18 02:22:11;;;;;;;5.63;2.10;;;7.00;86.10;;;;;;5066920;28;20209;-62
2023/11/18 02:24:40;;;;;;;3.10;2.03;;;7.00;86.30;;;;;;5054841;28;20204;-62
2023/11/18 02:27:11;;;;;;;3.13;1.73;;;7.00;86.20;;;;;;5062410;28;20260;-62
2023/11/18 02:29:44;;;;;;;4.87;2.30;;;6.90;85.90;;;;;;5051097;28;20226;-61
2023/11/18 02:32:44;;;;;;;2.40;1.83;;;6.80;85.60;;;;;;5064526;28;20572;-61
2023/11/18 02:35:26;;;;;;;3.40;1.70;;;6.80;85.70;;;;;;5069413;28;20608;-62
2023/11/18 02:37:55;;;;;;;3.03;2.10;;;6.80;85.90;;;;;;5063875;28;20194;-62
2023/11/18 02:40:40;;;;;;;2.67;2.27;;;6.80;86.00;;;;;;5061695;28;20198;-62
2023/11/18 02:43:09;;;;;;;3.13;2.07;;;6.80;86.20;;;;;;5066043;28;20639;-62
2023/11/18 02:45:37;;;;;;;3.60;1.93;;;6.80;86.30;;;;;;5065545;28;20194;-62
2023/11/18 02:48:06;;;;;;;2.53;1.93;;;6.80;86.20;;;;;;5070809;28;20217;-62
2023/11/18 02:50:38;;;;;;;3.10;1.67;;;6.80;85.90;;;;;;5051580;28;20597;-62
2023/11/18 02:53:05;;;;;;;4.80;1.70;;;6.70;85.80;;;;;;5064436;28;20194;-62
2023/11/18 02:55:32;;;;;;;2.73;1.90;;;6.70;85.90;;;;;;5048103;28;20237;-61
2023/11/18 02:58:02;;;;;;;4.70;1.80;;;6.70;85.80;;;;;;5067318;28;20524;-62
2023/11/18 03:00:33;;;;;;;3.93;2.13;;;6.70;85.70;;;;;;5068094;28;20727;-62
2023/11/18 03:03:00;;;;;;;3.93;2.00;;;6.70;85.80;;;;;;5060422;28;20291;-62
2023/11/18 03:05:27;;;;;;;3.33;1.67;;;6.70;85.80;;;;;;5058414;28;20210;-62
2023/11/18 03:07:57;;;;;;;2.63;2.27;;;6.70;85.70;;;;;;5063730;28;20643;-62
2023/11/18 03:10:25;;;;;;;2.90;2.03;;;6.70;85.70;;;;;;5072873;28;20715;-62
2023/11/18 03:12:53;;;;;;;2.53;2.00;;;6.70;85.80;;;;;;5070864;28;20197;-62
2023/11/18 03:15:22;;;;;;;3.47;2.10;;;6.70;85.70;;;;;;5040613;28;20670;-62
2023/11/18 03:17:51;;;;;;;4.47;1.83;;;6.70;85.50;;;;;;5054741;28;20198;-62
2023/11/18 03:20:20;;;;;;;3.13;2.20;;;6.60;85.40;;;;;;5066371;28;20220;-62
2023/11/18 03:22:47;;;;;;;3.27;1.87;;;6.60;85.30;;;;;;5064631;28;20206;-62
2023/11/18 03:25:16;;;;;;;1.93;1.77;;;6.60;85.20;;;;;;5053713;28;20703;-61
2023/11/18 03:27:46;;;;;;;4.60;2.47;;;6.60;85.30;;;;;;5062338;28;20195;-62
2023/11/18 03:30:13;;;;;;;7.53;2.70;;;6.60;85.40;;;;;;5063479;28;20229;-62
2023/11/18 03:32:40;;;;;;;2.10;1.80;;;6.50;85.40;;;;;;5063330;28;20202;-62
2023/11/18 03:35:10;;;;;;;5.30;1.90;;;6.50;85.50;;;;;;5067346;28;20226;-62
2023/11/18 03:37:40;;;;;;;5.83;2.10;;;6.50;85.50;;;;;;5060661;28;20225;-62
2023/11/18 03:40:10;;;;;;;2.37;2.03;;;6.50;85.40;;;;;;5061060;28;20545;-62
2023/11/18 03:42:46;;;;;;;2.60;2.40;;;6.50;85.40;;;;;;5044843;28;20204;-62
2023/11/18 03:45:17;;;;;;;5.03;2.17;;;6.50;85.40;;;;;;5065064;28;20209;-62
2023/11/18 03:47:45;;;;;;;3.30;2.10;;;6.50;85.10;;;;;;5065748;28;20248;-62
2023/11/18 03:50:13;;;;;;;5.10;2.20;;;6.40;85.00;;;;;;5059386;28;20203;-62
2023/11/18 03:52:40;;;;;;;3.80;2.73;;;6.40;85.10;;;;;;5054286;28;20250;-62
2023/11/18 03:55:08;;;;;;;3.57;2.10;;;6.40;85.40;;;;;;5065439;28;20262;-62
2023/11/18 03:57:35;;;;;;;2.37;2.07;;;6.40;85.60;;;;;;5052899;28;20211;-62
2023/11/18 04:00:03;;;;;;;2.83;2.43;;;6.40;85.80;;;;;;5051766;28;20202;-62
2023/11/18 04:02:36;;;;;;;3.97;2.87;;;6.40;86.10;;;;;;5049330;28;20194;-62
2023/11/18 04:05:03;;;;;;;3.47;2.10;;;6.40;86.30;;;;;;5063646;28;20268;-62
2023/11/18 04:07:31;;;;;;;3.37;2.23;;;6.40;86.30;;;;;;5054479;28;20554;-62
2023/11/18 04:09:58;;;;;;;2.73;2.40;;;6.40;86.00;;;;;;5052856;28;20210;-62
2023/11/18 04:12:27;;;;;;;3.83;2.37;;;6.40;85.90;;;;;;5062000;28;20202;-62
2023/11/18 04:14:54;;;;;;;2.77;2.10;;;6.40;85.90;;;;;;5045241;28;20218;-62
2023/11/18 04:17:21;;;;;;;2.73;1.83;;;6.40;85.70;;;;;;5063340;28;20200;-62
2023/11/18 04:19:48;;;;;;;2.23;1.90;;;6.50;85.50;;;;;;5053503;28;20554;-62
2023/11/18 04:22:15;;;;;;;3.40;2.10;;;6.50;85.40;;;;;;5047379;28;20284;-62
2023/11/18 04:24:45;;;;;;;3.70;2.00;;;6.50;85.20;;;;;;5061995;28;20199;-62
2023/11/18 04:27:12;;;;;;;2.93;1.97;;;6.50;84.80;;;;;;5058219;28;20287;-62
2023/11/18 04:29:40;;;;;;;1.80;1.70;;;6.50;85.10;;;;;;5043168;28;20298;-62
2023/11/18 04:32:08;;;;;;;2.07;1.67;;;6.40;85.30;;;;;;5049162;28;20229;-62
2023/11/18 04:34:36;;;;;;;2.30;1.97;;;6.40;85.60;;;;;;5052656;28;20210;-62
2023/11/18 04:37:05;;;;;;;4.97;2.57;;;6.40;85.80;;;;;;5062662;28;20190;-62
2023/11/18 04:39:34;;;;;;;5.73;2.17;;;6.40;86.10;;;;;;5055491;28;20191;-62
2023/11/18 04:42:02;;;;;;;3.70;2.23;;;6.30;86.20;;;;;;5058343;28;20358;-62
2023/11/18 04:44:31;;;;;;;3.20;2.30;;;6.30;86.20;;;;;;5062565;28;20290;-62
2023/11/18 04:46:58;;;;;;;4.67;2.60;;;6.20;86.10;;;;;;5065704;28;20267;-62
2023/11/18 04:49:25;;;;;;;2.37;1.93;;;6.20;86.20;;;;;;5066151;28;20540;-62
2023/11/18 04:51:52;;;;;;;9.93;2.67;;;6.20;86.20;;;;;;5057916;28;20209;-62
2023/11/18 04:54:19;;;;;;;4.27;2.47;;;6.10;85.90;;;;;;5064491;28;20198;-62
2023/11/18 04:56:47;;;;;;;3.87;2.37;;;6.10;85.80;;;;;;5063839;28;20271;-62
2023/11/18 04:59:14;;;;;;;2.67;1.93;;;6.20;85.70;;;;;;5062019;28;20205;-62
2023/11/18 05:01:41;;;;;;;11.43;2.73;;;6.20;85.60;;;;;;5064230;28;20623;-62
2023/11/18 05:04:09;;;;;;;2.77;2.47;;;6.20;85.30;;;;;;5057830;28;20234;-62
2023/11/18 05:06:36;;;;;;;2.33;2.13;;;6.30;85.30;;;;;;5060750;28;20627;-61
2023/11/18 05:09:07;;;;;;;2.20;1.93;;;6.20;85.40;;;;;;5061271;28;20647;-62
2023/11/18 05:11:35;;;;;;;2.40;2.00;;;6.30;85.50;;;;;;5063768;28;20197;-62
2023/11/18 05:14:06;;;;;;;4.67;2.10;;;6.20;85.60;;;;;;5059345;28;20650;-62
2023/11/18 05:16:34;;;;;;;3.13;1.87;;;6.20;85.70;;;;;;5063340;28;20237;-62
2023/11/18 05:19:01;;;;;;;4.80;2.23;;;6.10;85.80;;;;;;5070009;28;20201;-62
2023/11/18 05:21:29;;;;;;;6.30;3.20;;;6.10;86.10;;;;;;5048897;28;20206;-62
2023/11/18 05:23:57;;;;;;;2.73;2.13;;;6.10;86.20;;;;;;5066299;28;20205;-62
2023/11/18 05:26:24;;;;;;;1.73;1.63;;;6.10;86.30;;;;;;5064734;28;20203;-62
2023/11/18 05:28:51;;;;;;;1.70;1.60;;;6.10;86.20;;;;;;5061554;28;20202;-62
2023/11/18 05:31:18;;;;;;;2.93;2.00;;;6.10;86.10;;;;;;5065903;28;20206;-62
2023/11/18 05:33:51;;;;;;;3.33;1.87;;;6.20;86.10;;;;;;5065446;28;20510;-62
2023/11/18 05:36:26;;;;;;;5.23;2.10;;;6.20;85.80;;;;;;5066769;28;20225;-62
2023/11/18 05:38:54;;;;;;;3.07;2.13;;;6.20;85.60;;;;;;5065046;28;20267;-62
2023/11/18 05:41:27;;;;;;;3.03;2.07;;;6.20;85.50;;;;;;5061811;28;20519;-62
2023/11/18 05:43:57;;;;;;;4.30;2.17;;;6.30;85.30;;;;;;5063676;28;20273;-62
2023/11/18 05:46:25;;;;;;;4.40;2.40;;;6.30;85.00;;;;;;5064044;28;20271;-61
2023/11/18 05:48:53;;;;;;;3.83;1.90;;;6.40;85.00;;;;;;5060153;28;20588;-61
2023/11/18 05:51:25;;;;;;;2.47;1.80;;;6.40;84.80;;;;;;5047654;28;20219;-61
2023/11/18 05:53:53;;;;;;;6.90;1.90;;;6.50;84.60;;;;;;5063554;28;20677;-61
2023/11/18 05:56:22;;;;;;;4.03;1.80;;;6.50;84.50;;;;;;5064837;28;20569;-62
2023/11/18 05:58:53;;;;;;;2.83;1.80;;;6.50;84.20;;;;;;5064188;28;20209;-62
2023/11/18 06:01:21;;;;;;;2.87;2.30;;;6.50;84.10;;;;;;5065938;28;20258;-62
2023/11/18 06:03:48;;;;;;;3.53;1.87;;;6.50;83.90;;;;;;5065139;28;20265;-62
2023/11/18 06:06:16;;;;;;;1.83;1.60;;;6.50;83.80;;;;;;5062360;28;20595;-62
2023/11/18 06:08:49;;;;;;;6.77;2.00;;;6.50;83.70;;;;;;5066430;28;20281;-62
2023/11/18 06:11:18;;;;;;;3.77;2.13;;;6.50;83.70;;;;;;5064149;28;20236;-62
2023/11/18 06:13:50;;;;;;;3.17;1.70;;;6.50;83.70;;;;;;5045631;28;20266;-62
2023/11/18 06:16:24;;;;;;;5.63;1.97;;;6.50;83.80;;;;;;5066949;28;20219;-62
2023/11/18 06:18:55;;;;;;;2.20;1.70;;;6.40;83.70;;;;;;5067683;28;20255;-62
2023/11/18 06:21:24;;;;;;;3.53;1.90;;;6.30;83.80;;;;;;5067093;28;20210;-62
2023/11/18 06:23:52;;;;;;;2.83;2.10;;;6.30;84.10;;;;;;5062871;28;20205;-62
2023/11/18 06:26:19;;;;;;;5.77;1.97;;;6.20;84.20;;;;;;5047317;28;20210;-62
2023/11/18 06:28:49;;;;;;;2.10;1.60;;;6.20;84.40;;;;;;5070307;28;20331;-62
2023/11/18 06:31:16;;;;;;;2.30;2.00;;;6.20;84.70;;;;;;5064259;28;20542;-62
2023/11/18 06:33:45;;;;;;;4.27;2.67;;;6.20;84.80;;;;;;5060836;28;20549;-62
2023/11/18 06:36:18;;;;;;;5.63;2.93;;;6.10;84.80;;;;;;5063496;28;20210;-62
2023/11/18 06:38:46;;;;;;;2.63;2.43;;;6.10;84.80;;;;;;5064085;28;20252;-62
2023/11/18 06:41:15;;;;;;;3.07;2.23;;;6.10;85.00;;;;;;5068772;28;20639;-62
2023/11/18 06:43:56;;;;;;;2.87;1.80;;;6.10;85.20;;;;;;5065873;28;20190;-62
2023/11/18 06:46:33;;;;;;;2.27;1.93;;;6.20;85.40;;;;;;5067607;28;20205;-62
2023/11/18 06:49:03;;;;;;;4.43;2.60;;;6.20;85.60;;;;;;5063645;28;20202;-62
2023/11/18 06:51:34;;;;;;;1.93;1.43;;;6.20;85.70;;;;;;5070626;28;20657;-62
2023/11/18 06:54:08;;;;;;;2.03;1.60;;;6.30;85.90;;;;;;5062612;28;20516;-61
2023/11/18 06:56:38;;;;;;;2.83;2.03;;;6.40;85.60;;;;;;5063997;28;20554;-61
2023/11/18 06:59:12;;;;;;;4.33;1.97;;;6.60;85.00;;;;;;5064094;28;20647;-61
2023/11/18 07:01:46;;;;;;;2.87;1.97;;;6.80;84.30;;;;;;5060661;28;20190;-61
2023/11/18 07:04:16;;;;;;;2.87;1.83;;;6.90;83.50;;;;;;5060349;28;20742;-61
2023/11/18 07:06:43;;;;;;;3.53;2.50;;;6.90;83.40;;;;;;5063457;28;20275;-61
2023/11/18 07:09:20;;;;;;;2.37;1.80;;;6.90;83.40;;;;;;5065109;28;20198;-61
2023/11/18 07:11:48;;;;;;;3.97;1.80;;;7.00;83.60;;;;;;5060453;28;20296;-62
2023/11/18 07:14:15;;;;;;;3.20;2.13;;;6.90;83.60;;;;;;5061658;28;20281;-61
2023/11/18 07:16:44;;;;;;;3.30;2.10;;;7.00;83.90;;;;;;5067181;28;20213;-61
2023/11/18 07:19:19;;;;;;;5.13;2.40;;;7.00;84.00;;;;;;5061813;28;20289;-61
2023/11/18 07:21:49;;;;;;;1.97;1.77;;;7.00;84.20;;;;;;5063517;28;20493;-62
2023/11/18 07:24:17;;;;;;;2.47;2.27;;;7.00;84.30;;;;;;5058495;28;20201;-62
2023/11/18 07:26:45;;;;;;;6.17;2.13;;;7.10;84.50;;;;;;5061719;28;20638;-62
2023/11/18 07:29:12;;;;;;;3.27;1.90;;;7.20;84.60;;;;;;5069825;28;20209;-62
2023/11/18 07:31:39;;;;;;;3.23;2.30;;;7.20;84.60;;;;;;5064321;28;20206;-62
2023/11/18 07:34:06;;;;;;;4.30;1.97;;;7.30;84.50;;;;;;5063008;28;20285;-62
2023/11/18 07:36:34;;;;;;;4.07;1.90;;;7.40;84.60;;;;;;5061770;28;20223;-62
2023/11/18 07:39:02;;;;;;;5.20;1.90;;;7.50;84.70;;;;;;5060427;28;20281;-62
2023/11/18 07:41:32;;;;;;;2.33;1.80;;;7.60;84.70;;;;;;5067211;28;20221;-62
2023/11/18 07:44:00;;;;;;;5.67;2.07;;;7.70;85.40;;;;;;5062847;28;20203;-62
2023/11/18 07:46:30;;;;;;;1.77;1.53;;;7.80;84.60;;;;;;5057069;28;20206;-62
2023/11/18 07:48:58;;;;;;;2.83;1.70;;;7.90;84.50;;;;;;5062982;28;20257;-62
2023/11/18 07:51:25;;;;;;;3.53;2.20;;;8.00;84.60;;;;;;5060765;28;20191;-62
2023/11/18 07:53:55;;;;;;;2.20;1.83;;;8.10;84.70;;;;;;5065863;28;20206;-62
2023/11/18 07:56:22;;;;;;;3.20;1.97;;;8.20;84.60;;;;;;5064033;28;20236;-62
2023/11/18 07:58:51;;;;;;;4.37;2.17;;;8.30;84.50;;;;;;5063274;28;20554;-62
2023/11/18 08:01:21;;;;;;;3.67;2.30;;;8.50;84.40;;;;;;5061220;28;20202;-62
2023/11/18 08:03:50;;;;;;;3.07;2.10;;;8.60;84.20;;;;;;5046309;28;20245;-62
2023/11/18 08:06:18;;;;;;;2.90;1.90;;;8.80;84.20;;;;;;5068080;28;20205;-61
2023/11/18 08:08:47;;;;;;;1.63;1.50;;;8.90;84.10;;;;;;5064526;28;20718;-61
2023/11/18 08:11:14;;;;;;;2.33;1.43;;;9.10;84.00;;;;;;5063452;28;20210;-61
2023/11/18 08:13:41;;;;;;;3.40;1.83;;;9.20;83.80;;;;;;5059962;28;20224;-62
2023/11/18 08:16:08;;;;;;;2.33;1.67;;;9.40;83.60;;;;;;5062452;28;20240;-62
2023/11/18 08:18:36;;;;;;;2.27;1.67;;;9.60;83.40;;;;;;5070569;28;20224;-61
2023/11/18 08:21:06;;;;;;;1.90;1.60;;;9.70;82.90;;;;;;5063503;28;20215;-61
2023/11/18 08:23:33;;;;;;;2.73;1.77;;;9.90;82.60;;;;;;5065725;28;20614;-62
2023/11/18 08:26:00;;;;;;;2.93;1.90;;;10.10;82.30;;;;;;5056632;28;20218;-62
2023/11/18 08:28:27;;;;;;;2.13;1.50;;;10.20;81.80;;;;;;5063103;28;20672;-62
2023/11/18 08:30:54;;;;;;;2.20;1.80;;;10.40;81.30;;;;;;5045207;28;20209;-62
2023/11/18 08:33:24;;;;;;;2.20;1.40;;;10.50;80.90;;;;;;5058763;28;20678;-62
2023/11/18 08:35:51;;;;;;;2.00;1.60;;;10.60;80.50;;;;;;5060838;28;20225;-62
2023/11/18 08:38:19;;;;;;;2.53;1.80;;;10.70;80.10;;;;;;5058537;28;20237;-62
2023/11/18 08:40:48;;;;;;;4.77;1.80;;;10.80;79.60;;;;;;5063197;28;20221;-62
2023/11/18 08:43:16;;;;;;;3.50;1.70;;;10.80;79.30;;;;;;5063809;28;20275;-62
2023/11/18 08:45:44;;;;;;;2.87;1.90;;;10.90;79.40;;;;;;5061007;28;20649;-62
2023/11/18 08:48:11;;;;;;;3.27;1.70;;;11.00;78.70;;;;;;5061812;28;20543;-61
2023/11/18 08:50:43;;;;;;;1.93;1.70;;;11.00;78.60;;;;;;5057646;28;20205;-62
2023/11/18 08:53:11;;;;;;;4.00;2.03;;;11.00;78.60;;;;;;5064080;28;20201;-62
2023/11/18 08:55:39;;;;;;;2.40;1.80;;;11.00;78.50;;;;;;5066145;28;20228;-62
2023/11/18 08:58:15;;;;;;;3.27;1.90;;;10.90;78.40;;;;;;5062072;28;20243;-62
2023/11/18 09:03:17;;;;;;;2.43;1.83;;;10.90;78.40;;;;;;5060709;28;20246;-62
2023/11/18 09:05:56;;;;;;;7.23;2.17;;;11.00;78.60;;;;;;5065306;28;20563;-62
2023/11/18 09:08:44;;;;;;;4.27;1.80;;;11.10;78.60;;;;;;5066317;28;20207;-62
2023/11/18 09:11:19;;;;;;;4.73;2.17;;;11.20;78.20;;;;;;5065103;28;20576;-62
2023/11/18 09:13:49;;;;;;;6.50;2.13;;;11.40;78.00;;;;;;5058101;28;20213;-62
2023/11/18 09:16:16;;;;;;;6.47;2.00;;;11.40;77.60;;;;;;5060043;28;20209;-62
2023/11/18 09:18:47;;;;;;;2.33;2.03;;;11.50;77.40;;;;;;5067527;28;20200;-62
2023/11/18 09:21:14;;;;;;;2.77;1.80;;;11.50;77.10;;;;;;5062800;28;20227;-62
2023/11/18 09:23:44;;;;;;;4.77;2.10;;;11.60;76.90;;;;;;5063319;28;20201;-62
2023/11/18 09:26:12;;;;;;;3.10;2.10;;;11.70;77.00;;;;;;5062698;28;20231;-62
2023/11/18 09:28:40;;;;;;;3.17;2.27;;;11.80;77.10;;;;;;5045090;28;20191;-62
2023/11/18 09:31:11;;;;;;;2.20;1.80;;;12.00;77.20;;;;;;5066456;28;20207;-62
2023/11/18 09:33:44;;;;;;;4.80;1.77;;;12.10;77.10;;;;;;5064073;28;20283;-62
2023/11/18 09:36:12;;;;;;;5.40;1.83;;;12.20;76.70;;;;;;5062931;28;20198;-61
2023/11/18 09:38:40;;;;;;;3.83;1.80;;;12.30;76.40;;;;;;5055885;28;20206;-62
2023/11/18 09:41:12;;;;;;;2.30;1.67;;;12.40;76.10;;;;;;5061500;28;20610;-62
2023/11/18 09:43:47;;;;;;;2.83;1.70;;;12.60;75.80;;;;;;5063788;28;20200;-62
2023/11/18 09:46:18;;;;;;;2.20;1.47;;;12.70;75.70;;;;;;5062542;28;20646;-62
2023/11/18 09:48:52;;;;;;;2.20;2.00;;;12.80;75.50;;;;;;5065110;28;20205;-62
2023/11/18 09:51:29;;;;;;;6.50;2.00;;;12.90;75.10;;;;;;5060241;28;20201;-62
2023/11/18 09:54:01;;;;;;;2.93;1.90;;;13.00;74.60;;;;;;5064982;28;20248;-62
2023/11/18 09:56:56;;;;;;;2.63;1.67;;;13.10;73.00;;;;;;5062789;28;20221;-61
2023/11/18 09:59:34;;;;;;;1.87;1.10;;;13.20;72.20;;;;;;5067464;28;20255;-62
2023/11/18 10:02:04;;;;;;;2.00;1.67;;;13.20;71.40;;;;;;5067638;28;20540;-61
2023/11/18 10:04:32;;;;;;;1.10;1.10;;;13.30;71.70;;;;;;5063310;28;20248;-61
2023/11/18 10:07:02;;;;;;;1.90;1.47;;;13.40;71.90;;;;;;5066875;28;20259;-62
2023/11/18 10:09:37;;;;;;;1.73;1.20;;;13.50;71.60;;;;;;5066786;28;20219;-62
2023/11/18 10:12:07;;;;;;;1.80;1.30;;;13.50;70.80;;;;;;5068506;28;20291;-62
2023/11/18 10:14:35;;;;;;;3.97;1.00;;;13.60;71.30;;;;;;5057640;28;20198;-62
2023/11/18 10:17:08;;;;;;;1.10;1.00;;;13.60;71.40;;;;;;5056241;28;20217;-62
2023/11/18 10:19:51;;;;;;;1.80;1.37;;;13.80;71.20;;;;;;5066545;28;20217;-62
2023/11/18 10:22:26;;;;;;;1.37;1.17;;;13.80;70.10;;;;;;5064810;28;20204;-63
2023/11/18 10:24:56;;;;;;;1.00;1.00;;;13.90;70.00;;;;;;5067549;28;20283;-62
2023/11/18 10:27:30;;;;;;;1.00;0.90;;;14.00;69.50;;;;;;5062617;28;20194;-62
2023/11/18 10:30:04;;;;;;;0.90;0.90;;;14.10;69.10;;;;;;5063339;28;20206;-62
2023/11/18 10:32:35;;;;;;;1.20;1.10;;;14.20;69.10;;;;;;5067258;28;20638;-62
2023/11/18 10:35:07;;;;;;;1.00;0.90;;;14.20;69.10;;;;;;5064950;28;20634;-61
2023/11/18 10:37:41;;;;;;;1.40;1.07;;;14.30;69.30;;;;;;5065062;28;20217;-61
2023/11/18 10:40:13;;;;;;;1.30;1.10;;;14.40;68.00;;;;;;5061284;28;20224;-62
2023/11/18 10:42:42;;;;;;;1.83;1.13;;;14.50;68.00;;;;;;5045388;28;20194;-62
2023/11/18 10:45:12;;;;;;;1.40;1.17;;;14.60;68.40;;;;;;5067060;28;20195;-62
2023/11/18 10:47:43;;;;;;;2.43;1.10;;;14.60;68.70;;;;;;5062200;28;20199;-62
2023/11/18 10:50:10;;;;;;;1.30;0.87;;;14.70;68.60;;;;;;5066137;28;20216;-62
2023/11/18 10:52:40;;;;;;;0.70;0.70;;;14.90;68.60;;;;;;5064535;28;20201;-62
2023/11/18 10:55:11;;;;;;;2.40;1.00;;;14.90;68.40;;;;;;5065768;28;20209;-62
2023/11/18 10:57:41;;;;;;;1.27;0.80;;;15.00;67.80;;;;;;5065467;28;20209;-62
2023/11/18 11:00:14;;;;;;;1.03;1.00;;;15.10;66.40;;;;;;5066852;28;20198;-62
2023/11/18 11:02:42;;;;;;;1.97;1.20;;;15.20;66.00;;;;;;5062545;28;20569;-62
2023/11/18 11:05:15;;;;;;;1.20;0.80;;;15.20;64.90;;;;;;5063337;28;20261;-61
2023/11/18 11:07:49;;;;;;;1.47;1.10;;;15.30;64.60;;;;;;5066627;28;20206;-62
2023/11/18 11:10:16;;;;;;;2.97;1.10;;;15.30;64.70;;;;;;5066003;28;20221;-62
2023/11/18 11:12:53;;;;;;;1.93;1.20;;;15.40;64.40;;;;;;5065014;28;20214;-62
2023/11/18 11:15:31;;;;;;;1.37;1.00;;;15.50;63.20;;;;;;5061747;28;20197;-62
2023/11/18 11:18:23;;;;;;;1.03;0.83;;;15.60;63.50;;;;;;5066144;28;20210;-62
2023/11/18 11:21:03;;;;;;;2.47;0.97;;;15.60;63.00;;;;;;5065511;28;20199;-62
2023/11/18 11:23:49;;;;;;;1.30;1.20;;;15.70;62.50;;;;;;5066108;28;20190;-62
2023/11/18 11:26:56;;;;;;;1.33;1.17;;;15.80;60.60;;;;;;5067196;28;20198;-62
2023/11/18 11:29:41;;;;;;;2.17;1.33;;;15.80;60.20;;;;;;5035394;28;20295;-62
2023/11/18 11:32:12;;;;;;;1.80;1.50;;;15.90;59.40;;;;;;5063692;28;20623;-62
2023/11/18 11:34:45;;;;;;;1.47;1.20;;;15.90;59.40;;;;;;5065058;28;20304;-62
2023/11/18 11:37:14;;;;;;;2.53;1.30;;;15.90;59.80;;;;;;5066185;28;20224;-62
2023/11/18 11:39:47;;;;;;;4.83;1.10;;;16.00;60.20;;;;;;5055530;28;20284;-62
2023/11/18 11:42:17;;;;;;;1.43;1.17;;;16.00;60.60;;;;;;5063771;28;20230;-62
2023/11/18 11:44:45;;;;;;;1.07;0.90;;;16.10;60.30;;;;;;5064371;28;20678;-62
2023/11/18 11:47:15;;;;;;;3.27;1.10;;;16.20;60.70;;;;;;5046778;28;20209;-62
2023/11/18 11:49:55;;;;;;;5.40;1.47;;;16.30;60.90;;;;;;5060428;28;20229;-62
2023/11/18 11:52:37;;;;;;;1.27;1.17;;;16.30;59.80;;;;;;5060729;28;20194;-62
2023/11/18 11:55:15;;;;;;;3.57;1.30;;;16.40;60.30;;;;;;5065538;28;20199;-62
2023/11/18 11:57:42;;;;;;;1.40;1.03;;;16.40;60.90;;;;;;5065940;28;20237;-62
2023/11/18 12:00:17;;;;;;;1.60;1.37;;;16.50;60.60;;;;;;5065066;28;20224;-63
2023/11/18 12:02:54;;;;;;;1.40;1.10;;;16.60;59.70;;;;;;5064306;28;20228;-64
2023/11/18 12:05:26;;;;;;;3.83;1.53;;;16.50;58.60;;;;;;5061799;28;20293;-62
2023/11/18 12:07:55;;;;;;;2.33;1.30;;;16.60;57.70;;;;;;5063628;28;20229;-62
2023/11/18 12:10:30;;;;;;;3.67;1.90;;;16.60;57.20;;;;;;5063637;28;20226;-61
2023/11/18 12:13:15;;;;;;;1.93;1.40;;;16.50;57.50;;;;;;5063102;28;20283;-61
2023/11/18 12:15:57;;;;;;;2.97;1.67;;;16.50;56.80;;;;;;5059061;28;20216;-62
2023/11/18 12:18:25;;;;;;;2.20;1.60;;;16.50;57.40;;;;;;5064762;28;20643;-61
2023/11/18 12:20:55;;;;;;;4.10;2.00;;;16.50;57.60;;;;;;5063439;28;20198;-61
2023/11/18 12:23:24;;;;;;;3.77;1.90;;;16.50;57.20;;;;;;5063374;28;20191;-62
2023/11/18 12:25:57;;;;;;;4.20;2.03;;;16.50;57.10;;;;;;5059543;28;20282;-62
2023/11/18 12:28:26;;;;;;;6.00;2.03;;;16.50;58.10;;;;;;5061810;28;20206;-62
2023/11/18 12:30:57;;;;;;;1.47;1.30;;;16.50;58.30;;;;;;5059430;28;20255;-61
2023/11/18 12:33:30;;;;;;;1.43;1.30;;;16.50;57.00;;;;;;5063164;28;20221;-61
2023/11/18 12:36:27;;;;;;;2.80;1.63;;;16.50;56.10;;;;;;5044649;28;20225;-61
2023/11/18 12:39:20;;;;;;;2.03;1.80;;;16.50;56.50;;;;;;5058404;28;20244;-61
2023/11/18 12:42:20;;;;;;;1.97;1.77;;;16.50;56.00;;;;;;5057630;28;20218;-61
2023/11/18 12:45:40;;;;;;;3.13;1.80;;;16.40;56.30;;;;;;5063046;28;20263;-61
2023/11/18 12:48:13;;;;;;;1.97;1.30;;;16.50;57.10;;;;;;5062010;28;20203;-61
2023/11/18 12:50:45;;;;;;;2.03;1.57;;;16.50;56.40;;;;;;5041185;28;20318;-62
2023/11/18 12:53:14;;;;;;;1.60;1.23;;;16.60;55.40;;;;;;5058699;28;20198;-63
2023/11/18 12:55:42;;;;;;;3.33;1.70;;;16.50;55.30;;;;;;5063224;28;20271;-63
2023/11/18 12:58:11;;;;;;;2.20;1.17;;;16.50;54.80;;;;;;5063579;28;20562;-62
2023/11/18 13:00:42;;;;;;;1.53;1.00;;;16.50;54.10;;;;;;5063694;28;20195;-62
2023/11/18 13:03:10;;;;;;;1.27;1.17;;;16.60;54.00;;;;;;5061751;28;20207;-63
2023/11/18 13:05:38;;;;;;;1.20;1.10;;;16.60;54.00;;;;;;5063213;28;20255;-62
2023/11/18 13:08:05;;;;;;;3.20;1.40;;;16.50;54.30;;;;;;5062900;28;20290;-62
2023/11/18 13:10:32;;;;;;;1.77;1.20;;;16.50;54.40;;;;;;5062741;28;20202;-62
2023/11/18 13:13:00;;;;;;;1.43;1.07;;;16.50;53.90;;;;;;5060996;28;20679;-62